Time;durP1;ratioP1;P1;durP2;ratioP2;P2;SDS_P1;SDS_P2;PMS_P1;PMS_P2;Temp;Humidity;BMP_temperature;BMP_pressure;BME280_temperature;BME280_humidity;BME280_pressure;Samples;Min_cycle;Max_cycle;Signal;HPM_P1;HPM_P2
2021/10/22 00:00:34;;;;;;;55.80;33.25;;;;;;;;;;5041440;28;20033;-86
2021/10/22 00:03:00;;;;;;;55.97;32.40;;;;;;;;;;5041335;28;20281;-86
2021/10/22 00:05:26;;;;;;;52.67;29.00;;;;;;;;;;5041264;28;20021;-86
2021/10/22 00:07:52;;;;;;;43.10;28.65;;;;;;;;;;5041065;28;20025;-86
2021/10/22 00:10:18;;;;;;;42.40;28.15;;;;;;;;;;5023615;28;20029;-86
2021/10/22 00:12:45;;;;;;;45.67;28.17;;;;;;;;;;5023195;28;20042;-86
2021/10/22 00:15:12;;;;;;;41.03;27.10;;;;;;;;;;5040764;28;20030;-85
2021/10/22 00:17:38;;;;;;;37.28;25.67;;;;;;;;;;5040728;28;20025;-86
2021/10/22 00:20:06;;;;;;;37.42;24.70;;;;;;;;;;5023454;28;20030;-86
2021/10/22 00:22:32;;;;;;;36.83;24.52;;;;;;;;;;5041030;28;20017;-86
2021/10/22 00:24:58;;;;;;;36.20;25.35;;;;;;;;;;5023218;28;20032;-85
2021/10/22 00:27:24;;;;;;;35.47;25.33;;;;;;;;;;5040601;28;20120;-85
2021/10/22 00:29:50;;;;;;;33.08;24.80;;;;;;;;;;5023238;28;20036;-85
2021/10/22 00:32:53;;;;;;;33.15;24.15;;;;;;;;;;5040251;28;20030;-85
2021/10/22 00:35:19;;;;;;;39.15;25.02;;;;;;;;;;5040442;28;20068;-85
2021/10/22 00:37:45;;;;;;;34.63;24.23;;;;;;;;;;5022614;28;20037;-85
2021/10/22 00:40:13;;;;;;;35.15;23.60;;;;;;;;;;5040659;28;20049;-86
2021/10/22 00:42:39;;;;;;;36.78;22.50;;;;;;;;;;5023036;28;20017;-86
2021/10/22 00:45:07;;;;;;;32.33;22.10;;;;;;;;;;5040724;28;20056;-87
2021/10/22 00:51:04;;;;;;;31.17;22.48;;;;;;;;;;5040281;28;20073;-88
2021/10/22 00:53:31;;;;;;;30.98;22.80;;;;;;;;;;5040511;28;20022;-88
2021/10/22 00:55:57;;;;;;;30.27;21.20;;;;;;;;;;5040129;28;20029;-88
2021/10/22 00:58:23;;;;;;;29.45;20.83;;;;;;;;;;5039912;28;20021;-85
2021/10/22 01:00:50;;;;;;;28.38;20.58;;;;;;;;;;5022663;28;20029;-85
2021/10/22 01:03:16;;;;;;;29.52;21.38;;;;;;;;;;5022562;28;20021;-86
2021/10/22 01:05:45;;;;;;;29.38;19.63;;;;;;;;;;5039990;28;20319;-85
2021/10/22 01:08:12;;;;;;;24.35;17.60;;;;;;;;;;5021903;28;20428;-85
2021/10/22 01:10:38;;;;;;;23.65;17.23;;;;;;;;;;5022333;28;20032;-85
2021/10/22 01:13:05;;;;;;;26.48;17.83;;;;;;;;;;5022108;28;20085;-85
2021/10/22 01:15:31;;;;;;;24.00;17.40;;;;;;;;;;5039882;28;20415;-85
2021/10/22 01:17:59;;;;;;;28.48;18.55;;;;;;;;;;5039866;28;20033;-85
2021/10/22 01:20:26;;;;;;;25.52;17.52;;;;;;;;;;5040130;28;20048;-86
2021/10/22 01:22:53;;;;;;;24.60;17.35;;;;;;;;;;5039530;28;20475;-85
2021/10/22 01:25:21;;;;;;;29.17;15.90;;;;;;;;;;5039472;28;20145;-85
2021/10/22 01:27:47;;;;;;;24.08;14.15;;;;;;;;;;5021958;28;20041;-85
2021/10/22 01:30:15;;;;;;;21.52;12.07;;;;;;;;;;5021796;28;20078;-85
2021/10/22 01:32:41;;;;;;;18.33;9.82;;;;;;;;;;5039717;28;20079;-85
2021/10/22 01:35:09;;;;;;;10.07;6.70;;;;;;;;;;5039343;28;20080;-85
2021/10/22 01:37:36;;;;;;;8.73;6.13;;;;;;;;;;5038434;28;20144;-85
2021/10/22 01:40:02;;;;;;;8.48;5.05;;;;;;;;;;5039232;28;20021;-85
2021/10/22 01:42:29;;;;;;;6.93;4.13;;;;;;;;;;5039593;28;20025;-85
2021/10/22 01:44:55;;;;;;;6.43;3.75;;;;;;;;;;5039168;28;20045;-85
2021/10/22 01:47:22;;;;;;;7.22;3.50;;;;;;;;;;5038138;28;20061;-86
2021/10/22 01:49:48;;;;;;;5.30;3.05;;;;;;;;;;5039290;28;20367;-85
2021/10/22 01:52:14;;;;;;;7.20;3.10;;;;;;;;;;5022154;28;20084;-86
2021/10/22 01:54:41;;;;;;;6.85;2.72;;;;;;;;;;5037731;28;20071;-85
2021/10/22 01:57:07;;;;;;;3.33;2.70;;;;;;;;;;5039295;28;20033;-86
2021/10/22 01:59:33;;;;;;;5.97;2.42;;;;;;;;;;5038864;28;20060;-85
2021/10/22 02:01:59;;;;;;;4.35;2.30;;;;;;;;;;5038184;28;20021;-85
2021/10/22 02:04:25;;;;;;;3.85;2.58;;;;;;;;;;5038768;28;20024;-85
2021/10/22 02:06:51;;;;;;;5.07;2.30;;;;;;;;;;5039136;28;20029;-85
2021/10/22 02:09:18;;;;;;;3.63;2.17;;;;;;;;;;5039006;28;20034;-86
2021/10/22 02:11:45;;;;;;;6.22;2.17;;;;;;;;;;5038058;28;20028;-86
2021/10/22 02:14:11;;;;;;;4.30;2.22;;;;;;;;;;5037466;28;20041;-85
2021/10/22 02:16:37;;;;;;;3.75;2.20;;;;;;;;;;5039000;28;20116;-87
2021/10/22 02:19:22;;;;;;;4.78;2.20;;;;;;;;;;5038446;28;20120;-86
2021/10/22 02:21:48;;;;;;;5.68;2.20;;;;;;;;;;5037541;28;20160;-87
2021/10/22 02:24:14;;;;;;;3.53;2.53;;;;;;;;;;5037524;28;20025;-86
2021/10/22 02:26:40;;;;;;;5.70;2.45;;;;;;;;;;5038396;28;20022;-86
2021/10/22 02:29:06;;;;;;;3.72;2.15;;;;;;;;;;5038460;28;20081;-86
2021/10/22 02:31:32;;;;;;;3.03;2.38;;;;;;;;;;5020977;28;20029;-86
2021/10/22 02:34:17;;;;;;;4.20;1.90;;;;;;;;;;5038677;28;20025;-86
2021/10/22 02:36:43;;;;;;;4.43;2.50;;;;;;;;;;5038268;28;20032;-86
2021/10/22 02:39:09;;;;;;;6.70;2.30;;;;;;;;;;5037176;28;20029;-86
2021/10/22 02:41:35;;;;;;;5.75;2.70;;;;;;;;;;5038171;28;20030;-85
2021/10/22 02:44:01;;;;;;;4.40;2.53;;;;;;;;;;5037171;28;20060;-86
2021/10/22 02:46:27;;;;;;;6.03;2.83;;;;;;;;;;5038080;28;20025;-85
2021/10/22 02:51:56;;;;;;;8.73;2.55;;;;;;;;;;5038361;28;20035;-85
2021/10/22 02:54:23;;;;;;;2.28;1.77;;;;;;;;;;5038068;28;20063;-84
2021/10/22 02:56:49;;;;;;;4.82;2.10;;;;;;;;;;5037862;28;20033;-84
2021/10/22 02:59:15;;;;;;;5.03;2.35;;;;;;;;;;5038054;28;20120;-86
2021/10/22 03:01:42;;;;;;;4.35;2.03;;;;;;;;;;5038179;28;20044;-85
2021/10/22 03:04:08;;;;;;;4.03;2.10;;;;;;;;;;5037782;28;20097;-86
2021/10/22 03:06:34;;;;;;;5.93;2.50;;;;;;;;;;5037837;28;20430;-86
2021/10/22 03:09:01;;;;;;;4.50;2.78;;;;;;;;;;5037726;28;20032;-86
2021/10/22 03:11:27;;;;;;;3.92;2.30;;;;;;;;;;5038120;28;20320;-86
2021/10/22 03:13:53;;;;;;;4.47;2.05;;;;;;;;;;5037667;28;20068;-86
2021/10/22 03:16:20;;;;;;;3.33;2.10;;;;;;;;;;5037579;28;20022;-86
2021/10/22 03:24:53;;;;;;;4.13;2.10;;;;;;;;;;5037901;28;20052;-86
2021/10/22 03:27:21;;;;;;;2.88;1.98;;;;;;;;;;5037471;28;20113;-86
2021/10/22 03:29:47;;;;;;;4.88;2.65;;;;;;;;;;5036583;28;20033;-86
2021/10/22 03:32:13;;;;;;;3.10;2.10;;;;;;;;;;5036302;28;20033;-86
2021/10/22 03:34:40;;;;;;;3.17;2.10;;;;;;;;;;5036676;28;20025;-86
2021/10/22 03:37:06;;;;;;;3.72;2.10;;;;;;;;;;5037625;28;20036;-84
2021/10/22 03:39:32;;;;;;;6.20;2.58;;;;;;;;;;5036308;28;20021;-86
2021/10/22 03:41:58;;;;;;;5.07;2.40;;;;;;;;;;5037608;28;20320;-85
2021/10/22 03:44:25;;;;;;;3.60;2.00;;;;;;;;;;5037565;28;20041;-85
2021/10/22 03:46:51;;;;;;;8.68;2.50;;;;;;;;;;5036989;28;20022;-86
2021/10/22 03:49:17;;;;;;;3.03;1.85;;;;;;;;;;5036804;28;20029;-87
2021/10/22 03:51:43;;;;;;;7.40;2.50;;;;;;;;;;5036049;28;20034;-87
2021/10/22 03:54:09;;;;;;;4.05;1.83;;;;;;;;;;5036269;28;20437;-86
2021/10/22 03:56:35;;;;;;;4.80;2.40;;;;;;;;;;5036093;28;20416;-86
2021/10/22 03:59:01;;;;;;;4.72;2.17;;;;;;;;;;5037461;28;20404;-86
2021/10/22 04:01:28;;;;;;;6.30;2.28;;;;;;;;;;5037372;28;20049;-85
2021/10/22 04:04:31;;;;;;;6.63;2.33;;;;;;;;;;5037317;28;20074;-85
2021/10/22 04:06:57;;;;;;;5.28;2.30;;;;;;;;;;5036141;28;20037;-85
2021/10/22 04:09:31;;;;;;;6.53;2.40;;;;;;;;;;5037236;28;20017;-87
2021/10/22 04:11:58;;;;;;;6.60;2.47;;;;;;;;;;5037441;28;20025;-87
2021/10/22 04:14:24;;;;;;;4.85;2.00;;;;;;;;;;5037334;28;20076;-87
2021/10/22 04:16:50;;;;;;;5.28;2.00;;;;;;;;;;5037114;28;20025;-87
2021/10/22 04:19:16;;;;;;;5.55;2.17;;;;;;;;;;5037225;28;20157;-87
2021/10/22 04:21:42;;;;;;;4.60;2.00;;;;;;;;;;5036185;28;20087;-86
2021/10/22 04:24:08;;;;;;;5.07;2.45;;;;;;;;;;5037008;28;20021;-88
2021/10/22 04:26:35;;;;;;;4.70;2.00;;;;;;;;;;5039361;28;20033;-87
2021/10/22 04:29:01;;;;;;;5.13;1.70;;;;;;;;;;5039819;28;20076;-87
2021/10/22 04:31:27;;;;;;;5.28;1.73;;;;;;;;;;5040605;28;20045;-87
2021/10/22 04:37:21;;;;;;;3.35;1.90;;;;;;;;;;5040845;28;20068;-86
2021/10/22 04:42:27;;;;;;;4.60;1.98;;;;;;;;;;5040810;28;20430;-85
2021/10/22 04:44:53;;;;;;;4.40;1.80;;;;;;;;;;5040558;28;20443;-86
2021/10/22 04:47:19;;;;;;;3.67;2.30;;;;;;;;;;5040690;28;20363;-86
2021/10/22 04:49:45;;;;;;;4.75;2.40;;;;;;;;;;5040569;28;20104;-85
2021/10/22 04:52:11;;;;;;;4.38;2.70;;;;;;;;;;5039321;28;20063;-85
2021/10/22 04:54:37;;;;;;;4.10;2.60;;;;;;;;;;5039144;28;20043;-85
2021/10/22 04:57:03;;;;;;;4.40;2.40;;;;;;;;;;5038850;28;20072;-85
2021/10/22 04:59:29;;;;;;;4.65;2.67;;;;;;;;;;5022525;28;20025;-84
2021/10/22 05:01:56;;;;;;;5.05;2.33;;;;;;;;;;5038865;28;20389;-84
2021/10/22 05:04:22;;;;;;;2.97;2.30;;;;;;;;;;5040988;28;20018;-87
2021/10/22 05:06:48;;;;;;;3.92;2.67;;;;;;;;;;5028141;28;20026;-86
2021/10/22 05:09:14;;;;;;;7.18;3.50;;;;;;;;;;5020121;28;20080;-87
2021/10/22 05:11:40;;;;;;;14.50;5.97;;;;;;;;;;5020435;28;20408;-88
2021/10/22 05:14:06;;;;;;;16.30;6.57;;;;;;;;;;5020389;28;20021;-87
2021/10/22 05:16:32;;;;;;;18.67;8.98;;;;;;;;;;5035851;28;20033;-86
2021/10/22 05:18:59;;;;;;;17.48;9.77;;;;;;;;;;5040092;28;20025;-87
2021/10/22 05:21:25;;;;;;;18.35;10.02;;;;;;;;;;5039668;28;20036;-85
2021/10/22 05:23:52;;;;;;;12.80;7.13;;;;;;;;;;5039997;28;20116;-85
2021/10/22 05:26:18;;;;;;;6.78;3.58;;;;;;;;;;5039802;28;20026;-85
2021/10/22 05:28:44;;;;;;;8.82;2.00;;;;;;;;;;5037933;28;20045;-85
2021/10/22 05:31:10;;;;;;;3.85;1.60;;;;;;;;;;5039393;28;20033;-86
2021/10/22 05:36:40;;;;;;;5.88;1.50;;;;;;;;;;5039087;28;20030;-88
2021/10/22 05:39:06;;;;;;;5.20;2.50;;;;;;;;;;5021547;28;20033;-85
2021/10/22 05:41:32;;;;;;;6.45;3.15;;;;;;;;;;5039339;28;20063;-85
2021/10/22 05:43:58;;;;;;;19.15;11.13;;;;;;;;;;5039220;28;20084;-86
2021/10/22 05:46:24;;;;;;;15.20;9.13;;;;;;;;;;5021586;28;20034;-87
2021/10/22 05:48:50;;;;;;;9.85;6.55;;;;;;;;;;5038249;28;20072;-86
2021/10/22 05:51:17;;;;;;;11.82;6.00;;;;;;;;;;5037628;28;20064;-85
2021/10/22 05:53:43;;;;;;;6.57;4.43;;;;;;;;;;5039265;28;20383;-85
2021/10/22 05:56:09;;;;;;;11.80;8.23;;;;;;;;;;5021610;28;20067;-85
2021/10/22 05:58:35;;;;;;;9.63;5.55;;;;;;;;;;5039131;28;20030;-85
2021/10/22 06:01:04;;;;;;;6.88;3.53;;;;;;;;;;5039244;28;20033;-85
2021/10/22 06:03:30;;;;;;;7.82;2.83;;;;;;;;;;5038894;28;20085;-83
2021/10/22 06:05:57;;;;;;;13.63;6.18;;;;;;;;;;5037972;28;20104;-86
2021/10/22 06:08:23;;;;;;;38.25;18.55;;;;;;;;;;5038727;28;20034;-85
2021/10/22 06:10:49;;;;;;;145.45;56.03;;;;;;;;;;5021292;28;20421;-85
2021/10/22 06:13:17;;;;;;;56.83;23.08;;;;;;;;;;5038973;28;20064;-87
2021/10/22 06:15:44;;;;;;;28.73;11.82;;;;;;;;;;5038939;28;20057;-87
2021/10/22 06:24:17;;;;;;;11.23;4.78;;;;;;;;;;5038617;28;20058;-86
2021/10/22 06:26:44;;;;;;;10.25;4.47;;;;;;;;;;5038469;28;20076;-86
2021/10/22 06:29:12;;;;;;;16.70;5.43;;;;;;;;;;5020411;28;20054;-86
2021/10/22 06:31:40;;;;;;;20.70;9.23;;;;;;;;;;5004180;28;20048;-86
2021/10/22 06:34:06;;;;;;;17.20;9.93;;;;;;;;;;5038319;28;20025;-87
2021/10/22 06:36:32;;;;;;;18.25;10.90;;;;;;;;;;5020587;28;20080;-86
2021/10/22 06:38:58;;;;;;;13.25;7.35;;;;;;;;;;5020549;28;20037;-86
2021/10/22 06:41:24;;;;;;;11.05;5.10;;;;;;;;;;5038354;28;20041;-86
2021/10/22 06:43:50;;;;;;;15.10;4.13;;;;;;;;;;5020906;28;20017;-85
2021/10/22 06:46:16;;;;;;;11.52;4.55;;;;;;;;;;5038009;28;20030;-85
2021/10/22 06:54:51;;;;;;;14.18;7.68;;;;;;;;;;5018406;28;20036;-86
2021/10/22 06:57:17;;;;;;;10.30;6.10;;;;;;;;;;5018247;28;20026;-86
2021/10/22 06:59:43;;;;;;;6.00;3.53;;;;;;;;;;5017198;28;20037;-85
2021/10/22 07:02:09;;;;;;;7.55;2.90;;;;;;;;;;5018181;28;20344;-85
2021/10/22 07:04:37;;;;;;;6.85;3.42;;;;;;;;;;5029506;28;20427;-85
2021/10/22 07:07:16;;;;;;;6.65;4.00;;;;;;;;;;5022197;28;20029;-86
2021/10/22 07:09:46;;;;;;;13.20;7.20;;;;;;;;;;5000666;28;20022;-85
2021/10/22 07:12:13;;;;;;;12.25;7.38;;;;;;;;;;5018068;28;20069;-85
2021/10/22 07:14:48;;;;;;;10.13;4.75;;;;;;;;;;5017912;28;20036;-85
2021/10/22 07:17:14;;;;;;;8.18;2.92;;;;;;;;;;5017801;28;20408;-86
2021/10/22 07:19:40;;;;;;;5.03;2.38;;;;;;;;;;5026870;28;20403;-86
2021/10/22 07:22:12;;;;;;;6.15;1.90;;;;;;;;;;5036345;28;20039;-85
2021/10/22 07:24:38;;;;;;;8.45;4.45;;;;;;;;;;5037297;28;20021;-86
2021/10/22 07:27:05;;;;;;;10.45;4.50;;;;;;;;;;5036324;28;20379;-86
2021/10/22 07:29:31;;;;;;;7.88;4.25;;;;;;;;;;5037848;28;20116;-86
2021/10/22 07:31:58;;;;;;;7.53;4.35;;;;;;;;;;5036686;28;20171;-85
2021/10/22 07:34:26;;;;;;;11.13;4.30;;;;;;;;;;5036728;28;20017;-85
2021/10/22 07:36:53;;;;;;;12.23;7.38;;;;;;;;;;5036528;28;20022;-85
2021/10/22 07:39:20;;;;;;;11.77;6.65;;;;;;;;;;5037617;28;20029;-86
2021/10/22 07:41:46;;;;;;;11.63;5.88;;;;;;;;;;5037654;28;20053;-85
2021/10/22 07:44:13;;;;;;;11.73;7.15;;;;;;;;;;5037522;28;20397;-85
2021/10/22 07:46:42;;;;;;;9.93;6.70;;;;;;;;;;5036138;28;20087;-85
2021/10/22 07:52:14;;;;;;;8.88;6.20;;;;;;;;;;5037492;28;20075;-85
2021/10/22 07:54:40;;;;;;;7.10;4.95;;;;;;;;;;5037612;28;20030;-85
2021/10/22 07:57:06;;;;;;;6.30;4.28;;;;;;;;;;5036092;28;20038;-85
2021/10/22 07:59:32;;;;;;;8.00;4.82;;;;;;;;;;5037074;28;20061;-84
2021/10/22 08:01:58;;;;;;;11.15;6.57;;;;;;;;;;5040408;28;20025;-85
2021/10/22 08:04:24;;;;;;;15.32;9.25;;;;;;;;;;5040760;28;20018;-80
2021/10/22 08:06:50;;;;;;;21.63;11.80;;;;;;;;;;5039250;28;20061;-79
2021/10/22 08:09:16;;;;;;;18.80;13.13;;;;;;;;;;5040419;28;20032;-80
2021/10/22 08:11:42;;;;;;;18.70;11.65;;;;;;;;;;5040459;28;20017;-80
2021/10/22 08:14:09;;;;;;;22.13;11.38;;;;;;;;;;5040573;28;20373;-80
2021/10/22 08:16:36;;;;;;;15.50;9.38;;;;;;;;;;5022947;28;20030;-80
2021/10/22 08:19:02;;;;;;;14.93;8.00;;;;;;;;;;5040156;28;20044;-80
2021/10/22 08:21:56;;;;;;;14.52;8.55;;;;;;;;;;5040537;28;20018;-80
2021/10/22 08:24:20;;;;;;;15.60;8.95;;;;;;;;;;5040125;28;20028;-80
2021/10/22 08:26:46;;;;;;;16.58;9.95;;;;;;;;;;5040073;28;20026;-80
2021/10/22 08:29:12;;;;;;;29.25;14.75;;;;;;;;;;5039009;28;20084;-80
2021/10/22 08:31:38;;;;;;;26.55;14.05;;;;;;;;;;5040012;28;20061;-80
2021/10/22 08:34:23;;;;;;;27.33;15.18;;;;;;;;;;5040280;28;20319;-80
2021/10/22 08:36:49;;;;;;;30.98;15.43;;;;;;;;;;5022403;28;20079;-80
2021/10/22 08:39:16;;;;;;;55.08;21.77;;;;;;;;;;5022067;28;20124;-80
2021/10/22 08:41:42;;;;;;;39.47;16.10;;;;;;;;;;5021875;28;20029;-80
2021/10/22 08:44:09;;;;;;;22.02;11.45;;;;;;;;;;5040019;28;20059;-80
2021/10/22 08:46:36;;;;;;;25.13;12.13;;;;;;;;;;5022095;28;20500;-80
2021/10/22 08:49:03;;;;;;;29.85;14.07;;;;;;;;;;5039855;28;20029;-80
2021/10/22 08:51:29;;;;;;;25.95;12.38;;;;;;;;;;5039664;28;20037;-81
2021/10/22 08:53:57;;;;;;;20.40;9.00;;;;;;;;;;5039494;28;20044;-80
2021/10/22 08:56:23;;;;;;;14.95;6.93;;;;;;;;;;5039453;28;20069;-80
2021/10/22 08:58:49;;;;;;;20.38;8.88;;;;;;;;;;5021509;28;20049;-80
2021/10/22 09:01:15;;;;;;;26.85;11.00;;;;;;;;;;5039307;28;20018;-80
2021/10/22 09:03:42;;;;;;;26.80;10.02;;;;;;;;;;5039593;28;20022;-80
2021/10/22 09:06:13;;;;;;;20.27;8.43;;;;;;;;;;5039498;28;20021;-80
2021/10/22 09:08:41;;;;;;;16.90;9.98;;;;;;;;;;5039481;28;20400;-79
2021/10/22 09:11:19;;;;;;;15.60;8.32;;;;;;;;;;5039214;28;20104;-80
2021/10/22 09:13:59;;;;;;;11.82;7.50;;;;;;;;;;5039669;28;20025;-80
2021/10/22 09:16:25;;;;;;;19.98;9.32;;;;;;;;;;5039463;28;20036;-80
2021/10/22 09:18:52;;;;;;;11.82;6.93;;;;;;;;;;5039260;28;20025;-80
2021/10/22 09:21:26;;;;;;;9.45;5.63;;;;;;;;;;5039221;28;20029;-80
2021/10/22 09:23:53;;;;;;;10.80;6.32;;;;;;;;;;5039194;28;20021;-80
2021/10/22 09:26:21;;;;;;;8.15;4.97;;;;;;;;;;5038918;28;20045;-80
2021/10/22 09:28:48;;;;;;;9.63;6.82;;;;;;;;;;5038915;28;20128;-81
2021/10/22 09:31:15;;;;;;;11.00;6.32;;;;;;;;;;5039201;28;20052;-81
2021/10/22 09:33:50;;;;;;;7.38;5.10;;;;;;;;;;5037833;28;20542;-80
2021/10/22 09:36:30;;;;;;;11.40;6.03;;;;;;;;;;5037376;28;20042;-81
2021/10/22 09:39:08;;;;;;;7.65;4.55;;;;;;;;;;5039171;28;20025;-80
2021/10/22 09:41:38;;;;;;;6.95;4.80;;;;;;;;;;5037295;28;20037;-81
2021/10/22 09:44:23;;;;;;;13.50;7.20;;;;;;;;;;5037810;28;20021;-81
2021/10/22 09:46:50;;;;;;;17.40;8.50;;;;;;;;;;5038767;28;20056;-80
2021/10/22 09:49:23;;;;;;;11.25;6.93;;;;;;;;;;5037168;28;20034;-80
2021/10/22 09:51:50;;;;;;;18.00;11.85;;;;;;;;;;5038654;28;20423;-86
2021/10/22 09:54:17;;;;;;;20.85;14.02;;;;;;;;;;5038838;28;20040;-80
2021/10/22 09:56:51;;;;;;;14.25;9.50;;;;;;;;;;5038666;28;20045;-80
2021/10/22 09:59:24;;;;;;;16.67;10.55;;;;;;;;;;5037037;28;20042;-80
2021/10/22 10:01:58;;;;;;;13.27;7.57;;;;;;;;;;5038420;28;20539;-80
2021/10/22 10:04:25;;;;;;;12.45;7.40;;;;;;;;;;5038268;28;20025;-80
2021/10/22 10:06:51;;;;;;;11.98;7.82;;;;;;;;;;5038402;28;20026;-81
2021/10/22 10:09:18;;;;;;;9.23;5.18;;;;;;;;;;5037275;28;20021;-80
2021/10/22 10:11:45;;;;;;;15.50;6.18;;;;;;;;;;5038512;28;20025;-80
2021/10/22 10:14:13;;;;;;;14.13;9.98;;;;;;;;;;5038249;28;20056;-81
2021/10/22 10:16:40;;;;;;;13.50;9.70;;;;;;;;;;5038187;28;20052;-80
2021/10/22 10:19:09;;;;;;;12.57;9.02;;;;;;;;;;5038148;28;20037;-80
2021/10/22 10:21:43;;;;;;;10.13;6.15;;;;;;;;;;5038407;28;20041;-82
2021/10/22 10:24:10;;;;;;;10.15;6.35;;;;;;;;;;5037621;28;20025;-81
2021/10/22 10:26:37;;;;;;;15.35;11.00;;;;;;;;;;5037854;28;20032;-81
2021/10/22 10:29:05;;;;;;;15.75;8.57;;;;;;;;;;5020212;28;20405;-81
2021/10/22 10:31:40;;;;;;;10.70;6.82;;;;;;;;;;5037786;28;20323;-81
2021/10/22 10:34:25;;;;;;;12.23;6.10;;;;;;;;;;5037757;28;20029;-82
2021/10/22 10:36:52;;;;;;;19.08;8.90;;;;;;;;;;5036788;28;20026;-81
2021/10/22 10:39:42;;;;;;;17.35;10.30;;;;;;;;;;5037669;28;20025;-81
2021/10/22 10:42:17;;;;;;;17.67;10.43;;;;;;;;;;4977113;28;20061;-81
2021/10/22 10:44:44;;;;;;;17.52;10.32;;;;;;;;;;4960939;28;20031;-81
2021/10/22 10:47:33;;;;;;;12.70;8.07;;;;;;;;;;4977170;28;20034;-81
2021/10/22 10:50:00;;;;;;;19.23;11.43;;;;;;;;;;4977095;28;20107;-81
2021/10/22 10:52:39;;;;;;;14.38;8.65;;;;;;;;;;4976870;28;20491;-81
2021/10/22 10:55:31;;;;;;;16.30;8.95;;;;;;;;;;4976985;28;20039;-81
2021/10/22 10:57:57;;;;;;;;;;;;;;;;;;4977159;28;20105;-81
2021/10/22 11:00:27;;;;;;;11.25;7.65;;;;;;;;;;4976855;28;20257;-81
2021/10/22 11:03:05;;;;;;;10.85;7.25;;;;;;;;;;4960527;28;20034;-81
2021/10/22 11:08:15;;;;;;;6.65;4.90;;;;;;;;;;4976703;28;20049;-81
2021/10/22 11:11:03;;;;;;;15.70;10.15;;;;;;;;;;4976762;28;20049;-81
2021/10/22 11:13:44;;;;;;;14.23;8.85;;;;;;;;;;4976699;28;20117;-81
2021/10/22 11:16:11;;;;;;;16.63;7.88;;;;;;;;;;4976531;28;20031;-81
2021/10/22 11:18:39;;;;;;;13.75;7.85;;;;;;;;;;4994889;28;20087;-80
2021/10/22 11:21:05;;;;;;;10.68;5.90;;;;;;;;;;5019888;28;20041;-80
2021/10/22 11:23:36;;;;;;;10.75;6.15;;;;;;;;;;5037023;28;20051;-80
2021/10/22 11:26:03;;;;;;;8.87;4.77;;;;;;;;;;5036920;28;20427;-81
2021/10/22 11:28:32;;;;;;;10.32;5.57;;;;;;;;;;5035909;28;20049;-81
2021/10/22 11:30:58;;;;;;;11.10;6.45;;;;;;;;;;5036045;28;20319;-81
2021/10/22 11:33:27;;;;;;;9.88;5.63;;;;;;;;;;5036914;28;20029;-81
2021/10/22 11:35:57;;;;;;;10.32;5.30;;;;;;;;;;5036022;28;20022;-80
2021/10/22 11:38:29;;;;;;;10.60;5.82;;;;;;;;;;5035911;28;20355;-80
2021/10/22 11:40:56;;;;;;;16.27;6.95;;;;;;;;;;5036950;28;20315;-82
2021/10/22 11:43:22;;;;;;;12.98;8.90;;;;;;;;;;5037128;28;20022;-81
2021/10/22 11:45:53;;;;;;;17.52;9.90;;;;;;;;;;5036848;28;20022;-81
2021/10/22 11:48:45;;;;;;;12.55;7.70;;;;;;;;;;5035262;28;20041;-81
2021/10/22 11:51:11;;;;;;;;;;;;;;;;;;5033748;28;20029;-82
2021/10/22 11:53:38;;;;;;;14.30;8.80;;;;;;;;;;5036986;28;19939;-81
2021/10/22 11:56:04;;;;;;;8.02;6.22;;;;;;;;;;5036724;28;20120;-81
2021/10/22 11:58:33;;;;;;;9.50;5.75;;;;;;;;;;5036759;28;20041;-82
2021/10/22 12:01:01;;;;;;;13.90;7.15;;;;;;;;;;5036874;28;20104;-81
2021/10/22 12:03:27;;;;;;;12.30;7.70;;;;;;;;;;5036737;28;20018;-81
2021/10/22 12:05:55;;;;;;;20.05;13.65;;;;;;;;;;5036832;28;20113;-82
2021/10/22 12:08:21;;;;;;;28.02;19.98;;;;;;;;;;5036646;28;20024;-81
2021/10/22 12:10:51;;;;;;;30.40;19.20;;;;;;;;;;5019022;28;20053;-81
2021/10/22 12:13:47;;;;;;;28.83;16.60;;;;;;;;;;5036733;28;20412;-81
2021/10/22 12:16:14;;;;;;;26.40;16.42;;;;;;;;;;4976074;28;20122;-81
2021/10/22 12:18:43;;;;;;;21.20;14.23;;;;;;;;;;4959234;28;20046;-81
2021/10/22 12:21:09;;;;;;;17.38;13.00;;;;;;;;;;4975864;28;20042;-81
2021/10/22 12:23:39;;;;;;;18.45;13.82;;;;;;;;;;4975984;28;20113;-81
2021/10/22 12:26:19;;;;;;;18.60;12.52;;;;;;;;;;4975906;28;20113;-81
2021/10/22 12:28:55;;;;;;;18.10;13.00;;;;;;;;;;4975841;28;20384;-82
2021/10/22 12:31:28;;;;;;;20.25;13.95;;;;;;;;;;4959727;28;20325;-81
2021/10/22 12:34:13;;;;;;;25.10;16.13;;;;;;;;;;4975781;28;20034;-81
2021/10/22 12:36:42;;;;;;;32.90;17.40;;;;;;;;;;4975842;28;20352;-81
2021/10/22 12:39:21;;;;;;;43.90;30.52;;;;;;;;;;4975676;28;20042;-81
2021/10/22 12:41:47;;;;;;;35.28;21.40;;;;;;;;;;4975954;28;20037;-81
2021/10/22 12:44:14;;;;;;;35.45;18.35;;;;;;;;;;4975685;28;20313;-81
2021/10/22 12:46:53;;;;;;;29.50;18.45;;;;;;;;;;4976714;28;20364;-81
2021/10/22 12:49:27;;;;;;;31.13;20.75;;;;;;;;;;4963332;28;20066;-81
2021/10/22 12:52:00;;;;;;;31.27;19.95;;;;;;;;;;4987838;28;20034;-80
2021/10/22 12:54:26;;;;;;;29.65;19.58;;;;;;;;;;5002302;28;20057;-82
2021/10/22 12:56:55;;;;;;;26.42;19.15;;;;;;;;;;5020082;28;20030;-81
2021/10/22 12:59:25;;;;;;;21.83;15.40;;;;;;;;;;5019904;28;20041;-81
2021/10/22 13:01:55;;;;;;;16.52;11.25;;;;;;;;;;5001765;28;20038;-82
2021/10/22 13:04:23;;;;;;;15.57;10.73;;;;;;;;;;5019779;28;20149;-81
2021/10/22 13:22:46;;;;;;;24.67;14.43;;;;;;;;;;5019903;28;20084;-81
2021/10/22 13:25:12;;;;;;;36.08;22.67;;;;;;;;;;5019458;28;20500;-80
2021/10/22 13:27:38;;;;;;;45.30;30.30;;;;;;;;;;5001744;28;20046;-81
2021/10/22 13:30:12;;;;;;;40.40;26.08;;;;;;;;;;5002158;28;20026;-80
2021/10/22 13:32:38;;;;;;;32.92;22.55;;;;;;;;;;5001263;28;20049;-80
2021/10/22 13:35:06;;;;;;;34.92;20.75;;;;;;;;;;5019203;28;20446;-80
2021/10/22 13:37:35;;;;;;;31.55;17.92;;;;;;;;;;5019095;28;20040;-80
2021/10/22 13:40:02;;;;;;;37.83;21.67;;;;;;;;;;5019073;28;20363;-80
2021/10/22 13:42:28;;;;;;;32.30;19.40;;;;;;;;;;5019224;28;20042;-82
2021/10/22 13:44:54;;;;;;;27.40;16.10;;;;;;;;;;5018994;28;20305;-80
2021/10/22 13:47:20;;;;;;;27.27;18.95;;;;;;;;;;5001288;28;20360;-80
2021/10/22 13:49:46;;;;;;;35.85;22.45;;;;;;;;;;5018829;28;20030;-80
2021/10/22 13:52:12;;;;;;;53.28;36.45;;;;;;;;;;5018873;28;20032;-80
2021/10/22 13:54:38;;;;;;;36.78;26.92;;;;;;;;;;5018857;28;20026;-80
2021/10/22 13:57:05;;;;;;;22.75;17.50;;;;;;;;;;5018684;28;20030;-80
2021/10/22 13:59:37;;;;;;;18.48;14.18;;;;;;;;;;5000402;28;20364;-80
2021/10/22 14:02:03;;;;;;;17.08;13.85;;;;;;;;;;5018581;28;20025;-80
2021/10/22 14:04:29;;;;;;;19.10;13.27;;;;;;;;;;5000947;28;20065;-79
2021/10/22 14:06:56;;;;;;;17.80;12.05;;;;;;;;;;5001345;28;20053;-80
2021/10/22 14:09:22;;;;;;;17.20;10.40;;;;;;;;;;5018563;28;20022;-80
2021/10/22 14:11:58;;;;;;;15.35;11.30;;;;;;;;;;5018459;28;20022;-80
2021/10/22 14:25:09;;;;;;;21.00;13.43;;;;;;;;;;4958436;29;20078;-80
2021/10/22 14:30:20;;;;;;;24.77;15.90;;;;;;;;;;4958406;29;20057;-80
2021/10/22 14:32:47;;;;;;;34.42;21.38;;;;;;;;;;4941763;29;20073;-79
2021/10/22 14:35:13;;;;;;;40.20;22.67;;;;;;;;;;4941340;29;20032;-81
2021/10/22 14:37:40;;;;;;;45.17;24.80;;;;;;;;;;4941270;29;20394;-80
2021/10/22 14:40:13;;;;;;;48.03;27.77;;;;;;;;;;4957710;29;20421;-80
2021/10/22 14:42:40;;;;;;;49.97;29.40;;;;;;;;;;4957750;29;20163;-80
2021/10/22 14:45:10;;;;;;;42.95;26.48;;;;;;;;;;4957856;29;20046;-80
2021/10/22 14:47:49;;;;;;;34.50;23.60;;;;;;;;;;4940941;29;20027;-80
2021/10/22 14:50:21;;;;;;;35.33;22.33;;;;;;;;;;4941626;29;20487;-80
2021/10/22 14:57:51;;;;;;;34.30;23.70;;;;;;;;;;5018082;28;20064;-81
2021/10/22 15:00:18;;;;;;;48.35;29.77;;;;;;;;;;5017863;28;20116;-80
2021/10/22 15:02:44;;;;;;;68.95;41.92;;;;;;;;;;5017812;28;20022;-80
2021/10/22 15:05:29;;;;;;;69.28;43.92;;;;;;;;;;5017557;28;20022;-80
2021/10/22 15:07:55;;;;;;;68.00;44.25;;;;;;;;;;5017594;28;20018;-80
2021/10/22 15:10:21;;;;;;;51.83;32.60;;;;;;;;;;5017344;28;20060;-81
2021/10/22 15:12:47;;;;;;;42.97;29.33;;;;;;;;;;5017723;28;20064;-81
2021/10/22 15:15:15;;;;;;;40.13;26.90;;;;;;;;;;5017738;28;20022;-80
2021/10/22 15:17:41;;;;;;;38.90;26.80;;;;;;;;;;4999452;28;20034;-81
2021/10/22 15:20:07;;;;;;;35.33;26.45;;;;;;;;;;4999870;28;20419;-81
2021/10/22 15:22:34;;;;;;;36.80;26.35;;;;;;;;;;5017578;28;20044;-81
2021/10/22 15:25:00;;;;;;;40.50;28.17;;;;;;;;;;4999547;28;20030;-80
2021/10/22 15:27:26;;;;;;;48.83;32.53;;;;;;;;;;5016801;28;20049;-80
2021/10/22 15:29:53;;;;;;;52.65;34.25;;;;;;;;;;4998873;28;20420;-80
2021/10/22 15:32:19;;;;;;;79.15;55.25;;;;;;;;;;5016436;28;20424;-80
2021/10/22 15:34:45;;;;;;;83.50;53.25;;;;;;;;;;5016360;28;20029;-80
2021/10/22 15:37:11;;;;;;;89.82;54.42;;;;;;;;;;5016462;28;20472;-80
2021/10/22 15:39:38;;;;;;;100.28;60.67;;;;;;;;;;5016355;28;20030;-80
2021/10/22 15:42:04;;;;;;;84.75;54.05;;;;;;;;;;5016303;28;20026;-81
2021/10/22 15:44:31;;;;;;;60.10;37.90;;;;;;;;;;4999069;28;20022;-81
2021/10/22 15:47:01;;;;;;;49.60;32.90;;;;;;;;;;5016609;28;20416;-83
2021/10/22 15:49:30;;;;;;;54.97;37.78;;;;;;;;;;5016112;28;20424;-80